Time;durP1;ratioP1;P1;durP2;ratioP2;P2;SDS_P1;SDS_P2;PMS_P1;PMS_P2;Temp;Humidity;BMP_temperature;BMP_pressure;BME280_temperature;BME280_humidity;BME280_pressure;Samples;Min_cycle;Max_cycle;Signal;HPM_P1;HPM_P2
2023/02/07 05:01:34;;;;;;;2.78;2.58;;;-1.40;99.90;;;;;;5388582;23;20239;-70
2023/02/07 05:04:01;;;;;;;4.75;4.40;;;-1.40;99.90;;;;;;4931588;28;20727;-68
2023/02/07 05:06:28;;;;;;;2.15;2.15;;;-1.40;99.90;;;;;;4937262;29;20238;-68
2023/02/07 05:08:54;;;;;;;2.10;1.98;;;-1.40;99.90;;;;;;4934769;29;21181;-67
2023/02/07 05:11:21;;;;;;;2.75;2.75;;;-1.50;99.90;;;;;;4932663;29;20708;-68
2023/02/07 05:13:49;;;;;;;2.63;2.40;;;-1.40;99.90;;;;;;4930716;29;20547;-68
2023/02/07 05:16:16;;;;;;;6.45;4.97;;;-1.40;99.90;;;;;;4932189;29;20696;-68
2023/02/07 05:18:44;;;;;;;2.30;2.15;;;-1.40;99.90;;;;;;4942415;23;20239;-68
2023/02/07 05:21:11;;;;;;;3.25;2.03;;;-1.50;99.90;;;;;;4914521;29;20235;-68
2023/02/07 05:23:37;;;;;;;4.45;3.17;;;-1.50;99.90;;;;;;4913233;29;20287;-70
2023/02/07 05:26:05;;;;;;;2.88;1.90;;;-1.50;99.90;;;;;;4911944;29;20224;-69
2023/02/07 05:28:31;;;;;;;3.17;2.97;;;-1.50;99.90;;;;;;4912868;29;20237;-70
2023/02/07 05:30:58;;;;;;;4.60;2.40;;;-1.50;99.90;;;;;;4910568;29;20227;-68
2023/02/07 05:33:24;;;;;;;3.17;3.03;;;-1.50;99.90;;;;;;4912919;29;20209;-68
2023/02/07 05:35:52;;;;;;;5.67;4.73;;;-1.50;99.90;;;;;;4911738;29;20314;-69
2023/02/07 05:38:20;;;;;;;1.70;1.70;;;-1.50;99.90;;;;;;4913320;29;20488;-69
2023/02/07 05:40:48;;;;;;;2.30;2.30;;;-1.50;99.90;;;;;;4911655;29;20212;-68
2023/02/07 05:43:15;;;;;;;1.10;1.10;;;-1.50;99.90;;;;;;4912554;29;20239;-67
2023/02/07 05:45:44;;;;;;;8.38;4.65;;;-1.50;99.90;;;;;;4912475;29;20239;-70
2023/02/07 05:48:11;;;;;;;5.75;3.67;;;-1.40;99.90;;;;;;4908891;29;20208;-68
2023/02/07 05:50:38;;;;;;;1.52;1.52;;;-1.40;99.90;;;;;;4910156;29;20216;-69
2023/02/07 05:53:07;;;;;;;1.40;1.30;;;-1.40;99.90;;;;;;4913365;29;20209;-69
2023/02/07 05:55:34;;;;;;;1.73;1.73;;;-1.40;99.90;;;;;;4913134;29;20260;-68
2023/02/07 05:58:00;;;;;;;2.95;2.67;;;-1.40;99.90;;;;;;4912851;29;20209;-69
2023/02/07 06:00:27;;;;;;;11.20;3.83;;;-1.30;99.90;;;;;;4913171;29;20231;-68
2023/02/07 06:02:54;;;;;;;2.20;2.20;;;-1.30;99.90;;;;;;4912135;29;20232;-69
2023/02/07 06:05:21;;;;;;;5.13;2.67;;;-1.30;99.90;;;;;;4915311;29;20213;-69
2023/02/07 06:07:49;;;;;;;5.88;2.55;;;-1.30;99.90;;;;;;4916056;29;20687;-70
2023/02/07 06:10:18;;;;;;;1.48;1.38;;;-1.30;99.90;;;;;;4914284;29;20232;-68
2023/02/07 06:12:44;;;;;;;1.98;1.88;;;-1.40;99.90;;;;;;4918084;29;20577;-69
2023/02/07 06:15:11;;;;;;;3.13;2.92;;;-1.40;99.90;;;;;;4917598;29;20235;-70
2023/02/07 06:17:38;;;;;;;4.53;1.42;;;-1.40;99.90;;;;;;4914452;29;20215;-69
2023/02/07 06:20:05;;;;;;;2.85;2.63;;;-1.40;99.90;;;;;;4915559;29;20256;-70
2023/02/07 06:22:32;;;;;;;4.63;4.47;;;-1.40;99.90;;;;;;4916755;29;20279;-68
2023/02/07 06:24:59;;;;;;;1.17;1.17;;;-1.40;99.90;;;;;;4915656;29;20228;-70
2023/02/07 06:27:27;;;;;;;3.95;2.90;;;-1.30;99.90;;;;;;4914129;29;20240;-69
2023/02/07 06:29:54;;;;;;;3.42;3.15;;;-1.30;99.90;;;;;;4913391;29;20228;-69
2023/02/07 06:32:20;;;;;;;1.40;1.40;;;-1.40;99.90;;;;;;4914273;29;20213;-69
2023/02/07 06:34:47;;;;;;;5.45;2.28;;;-1.40;99.90;;;;;;4915411;29;20211;-69
2023/02/07 06:37:14;;;;;;;2.40;2.40;;;-1.40;99.90;;;;;;4916037;29;20216;-68
2023/02/07 06:39:41;;;;;;;3.17;2.80;;;-1.40;99.90;;;;;;4915078;29;20247;-69
2023/02/07 06:42:07;;;;;;;6.78;3.90;;;-1.30;99.90;;;;;;4915373;29;20219;-69
2023/02/07 06:44:35;;;;;;;5.15;4.78;;;-1.30;99.90;;;;;;4915194;29;20231;-69
2023/02/07 06:47:03;;;;;;;6.60;2.78;;;-1.30;99.90;;;;;;4915211;29;20220;-69
2023/02/07 06:49:29;;;;;;;2.58;2.35;;;-1.40;99.90;;;;;;4915107;29;20263;-69
2023/02/07 06:51:56;;;;;;;1.83;1.83;;;-1.30;99.90;;;;;;4916071;29;20209;-69
2023/02/07 06:54:23;;;;;;;5.75;4.78;;;-1.40;99.90;;;;;;4913663;29;20211;-69
2023/02/07 06:56:50;;;;;;;4.28;3.13;;;-1.40;99.90;;;;;;4915452;29;20213;-69
2023/02/07 06:59:17;;;;;;;3.05;2.85;;;-1.40;99.90;;;;;;4914045;29;20236;-68
2023/02/07 07:01:45;;;;;;;3.45;3.25;;;-1.40;99.90;;;;;;4915931;29;20315;-68
2023/02/07 07:04:11;;;;;;;5.45;3.38;;;-1.40;99.90;;;;;;4914259;29;20235;-70
2023/02/07 07:06:38;;;;;;;2.33;1.85;;;-1.30;99.90;;;;;;4911235;29;20212;-69
2023/02/07 07:09:05;;;;;;;8.48;6.50;;;-1.30;99.90;;;;;;4914776;29;20248;-68
2023/02/07 07:11:32;;;;;;;8.73;7.55;;;-1.30;99.90;;;;;;4911319;29;20304;-69
2023/02/07 07:13:59;;;;;;;7.60;6.88;;;-1.20;99.90;;;;;;4914729;29;20897;-68
2023/02/07 07:16:25;;;;;;;5.57;3.30;;;-1.20;99.90;;;;;;4915157;29;20215;-68
2023/02/07 07:18:54;;;;;;;3.92;3.60;;;-1.20;99.90;;;;;;4914464;29;20240;-68
2023/02/07 07:21:20;;;;;;;4.50;4.10;;;-1.10;99.90;;;;;;4916036;29;20224;-69
2023/02/07 07:23:47;;;;;;;6.53;3.78;;;-1.10;99.90;;;;;;4914712;29;20228;-68
2023/02/07 07:26:14;;;;;;;4.28;4.28;;;-1.10;99.90;;;;;;4913602;29;20232;-68
2023/02/07 07:28:40;;;;;;;2.97;2.38;;;-1.20;99.90;;;;;;4913537;29;20590;-68
2023/02/07 07:31:08;;;;;;;6.93;2.80;;;-1.30;99.90;;;;;;4914890;29;20221;-69
2023/02/07 07:33:35;;;;;;;18.27;9.63;;;-1.30;99.90;;;;;;4913260;29;20463;-68
2023/02/07 07:36:04;;;;;;;3.70;2.88;;;-1.30;99.90;;;;;;4914330;29;20219;-69
2023/02/07 07:38:32;;;;;;;3.67;3.47;;;-1.30;99.90;;;;;;4914876;29;20228;-68
2023/02/07 07:40:58;;;;;;;6.00;3.90;;;-1.20;99.90;;;;;;4917381;29;20645;-68
2023/02/07 07:43:25;;;;;;;1.92;1.83;;;-1.20;99.90;;;;;;4912794;29;20688;-68
2023/02/07 07:45:53;;;;;;;5.60;5.15;;;-1.10;99.90;;;;;;4914902;29;20205;-68
2023/02/07 07:48:20;;;;;;;6.22;4.57;;;-1.10;99.90;;;;;;4910051;29;20240;-68
2023/02/07 07:50:47;;;;;;;7.07;2.97;;;-1.10;99.90;;;;;;4912216;29;20232;-69
2023/02/07 07:53:16;;;;;;;4.38;3.90;;;-1.00;99.90;;;;;;4915427;29;20308;-68
2023/02/07 07:55:43;;;;;;;2.65;2.47;;;-1.00;99.90;;;;;;4914731;29;20220;-68
2023/02/07 07:58:09;;;;;;;7.00;4.30;;;-1.00;99.90;;;;;;4914252;29;20225;-68
2023/02/07 08:00:36;;;;;;;4.45;4.15;;;-0.90;99.90;;;;;;4909758;29;20220;-68
2023/02/07 08:03:03;;;;;;;4.63;3.70;;;-0.90;99.90;;;;;;4914260;29;20884;-68
2023/02/07 08:05:29;;;;;;;4.28;3.85;;;-0.90;99.90;;;;;;4914616;29;20205;-68
2023/02/07 08:07:56;;;;;;;1.75;1.75;;;-0.90;99.90;;;;;;4913953;29;20220;-68
2023/02/07 08:10:24;;;;;;;5.90;3.40;;;-0.90;99.90;;;;;;4914578;29;20212;-68
2023/02/07 08:12:51;;;;;;;17.33;3.00;;;-0.90;99.90;;;;;;4915897;29;20213;-68
2023/02/07 08:15:18;;;;;;;5.88;5.47;;;-0.90;99.90;;;;;;4913610;29;20210;-69
2023/02/07 08:17:45;;;;;;;11.38;3.25;;;-0.80;99.90;;;;;;4914470;29;20227;-67
2023/02/07 08:20:12;;;;;;;2.78;2.47;;;-0.80;99.90;;;;;;4911583;29;20325;-67
2023/02/07 08:22:39;;;;;;;4.15;3.90;;;-0.70;99.90;;;;;;4909477;29;20719;-68
2023/02/07 08:25:07;;;;;;;8.52;3.15;;;-0.70;99.90;;;;;;4911176;29;20237;-67
2023/02/07 08:27:35;;;;;;;6.78;3.38;;;-0.70;99.90;;;;;;4912296;29;20210;-68
2023/02/07 08:30:02;;;;;;;5.05;3.05;;;-0.70;99.90;;;;;;4915215;29;20237;-68
2023/02/07 08:32:29;;;;;;;3.05;2.90;;;-0.60;99.90;;;;;;4914919;29;20209;-68
2023/02/07 08:34:56;;;;;;;5.18;4.72;;;-0.50;99.90;;;;;;4914379;29;20751;-67
2023/02/07 08:37:22;;;;;;;5.38;4.65;;;-0.40;99.90;;;;;;4914766;29;20654;-67
2023/02/07 08:39:51;;;;;;;4.45;4.15;;;-0.50;99.90;;;;;;4913993;29;20238;-68
2023/02/07 08:42:19;;;;;;;6.43;5.15;;;-0.40;99.90;;;;;;4913396;29;20217;-68
2023/02/07 08:44:47;;;;;;;6.10;5.25;;;-0.40;99.90;;;;;;4911201;29;20273;-69
2023/02/07 08:47:14;;;;;;;3.97;3.67;;;-0.30;99.90;;;;;;4910326;29;20209;-68
2023/02/07 08:49:41;;;;;;;10.00;6.82;;;-0.30;99.90;;;;;;4910850;29;20238;-68
2023/02/07 08:52:08;;;;;;;4.68;4.30;;;-0.20;99.90;;;;;;4902732;29;20217;-69
2023/02/07 08:54:35;;;;;;;7.30;6.82;;;-0.10;99.90;;;;;;4914159;29;20211;-69
2023/02/07 08:57:02;;;;;;;5.85;4.28;;;-0.10;99.90;;;;;;4912261;29;20670;-68
2023/02/07 08:59:28;;;;;;;13.98;8.73;;;-0.20;99.90;;;;;;4914428;29;20230;-68
2023/02/07 09:01:56;;;;;;;8.15;5.70;;;-0.20;99.90;;;;;;4912593;29;20218;-69
2023/02/07 09:04:23;;;;;;;6.78;5.97;;;-0.20;99.90;;;;;;4909854;29;20229;-69
2023/02/07 09:06:50;;;;;;;11.40;5.75;;;-0.30;99.90;;;;;;4914050;29;20213;-68
2023/02/07 09:09:17;;;;;;;7.55;3.20;;;-0.40;99.90;;;;;;4913420;29;20231;-68
2023/02/07 09:11:44;;;;;;;11.73;5.50;;;-0.40;99.90;;;;;;4913854;29;20206;-68
2023/02/07 09:14:11;;;;;;;2.88;2.67;;;-0.50;99.90;;;;;;4910845;29;20210;-67
2023/02/07 09:16:37;;;;;;;2.70;2.60;;;-0.60;99.90;;;;;;4912634;29;20210;-69
2023/02/07 09:19:05;;;;;;;3.42;3.28;;;-0.50;99.90;;;;;;4907864;29;20758;-68
2023/02/07 09:21:33;;;;;;;11.65;5.97;;;-0.50;99.90;;;;;;4913589;29;20214;-68
2023/02/07 09:23:59;;;;;;;4.15;3.08;;;-0.40;99.90;;;;;;4913295;29;20331;-69
2023/02/07 09:26:26;;;;;;;7.40;4.38;;;-0.40;99.90;;;;;;4913261;29;20214;-69
2023/02/07 09:28:53;;;;;;;6.45;4.55;;;-0.40;99.90;;;;;;4914147;29;20314;-68
2023/02/07 09:31:20;;;;;;;4.55;4.25;;;-0.30;99.90;;;;;;4912114;29;20215;-69
2023/02/07 09:33:47;;;;;;;24.42;6.50;;;-0.30;99.90;;;;;;4911139;29;20703;-68
2023/02/07 09:36:23;;;;;;;7.10;6.60;;;-0.30;99.90;;;;;;4910704;29;20313;-68
2023/02/07 09:38:50;;;;;;;5.93;5.30;;;-0.20;99.90;;;;;;4916918;29;20298;-69
2023/02/07 09:41:24;;;;;;;3.55;3.25;;;-0.10;99.90;;;;;;4916760;29;20215;-68
2023/02/07 09:44:04;;;;;;;5.35;3.22;;;0.00;99.90;;;;;;4915836;29;20588;-68
2023/02/07 09:46:36;;;;;;;4.40;4.00;;;0.00;99.90;;;;;;4917130;29;20213;-68
2023/02/07 09:49:09;;;;;;;2.25;2.15;;;-0.10;99.90;;;;;;4917581;29;20227;-70
2023/02/07 09:51:38;;;;;;;12.57;5.40;;;-0.10;99.90;;;;;;4912566;29;20210;-67
2023/02/07 09:54:11;;;;;;;3.92;3.83;;;-0.10;99.90;;;;;;4910883;29;20243;-68
2023/02/07 09:56:38;;;;;;;4.57;3.25;;;-0.10;99.90;;;;;;4917265;29;20213;-67
2023/02/07 09:59:18;;;;;;;6.97;5.60;;;-0.10;99.90;;;;;;4910814;29;20225;-69
2023/02/07 10:01:48;;;;;;;5.22;4.03;;;0.00;99.90;;;;;;4915133;29;20220;-69
2023/02/07 10:04:29;;;;;;;14.73;6.13;;;0.00;99.90;;;;;;4911090;29;20238;-69
2023/02/07 10:06:59;;;;;;;5.22;3.90;;;-0.10;99.90;;;;;;4911838;29;20213;-69
2023/02/07 10:09:28;;;;;;;6.95;3.97;;;-0.10;99.90;;;;;;4915967;29;20237;-68
2023/02/07 10:12:02;;;;;;;2.80;2.80;;;-0.10;99.90;;;;;;4905985;29;20345;-69
2023/02/07 10:14:49;;;;;;;5.57;3.75;;;-0.10;99.90;;;;;;4913787;29;20212;-68
2023/02/07 10:17:43;;;;;;;5.75;3.97;;;0.00;99.90;;;;;;4915579;29;20217;-68
2023/02/07 10:20:29;;;;;;;5.50;4.68;;;0.10;99.90;;;;;;4912320;29;20276;-68
2023/02/07 10:23:06;;;;;;;9.55;4.70;;;0.10;99.90;;;;;;4916527;29;20250;-69
2023/02/07 10:25:44;;;;;;;2.35;2.15;;;0.20;99.90;;;;;;4914715;29;20236;-69
2023/02/07 10:28:53;;;;;;;6.72;4.60;;;0.30;99.90;;;;;;4916148;29;20218;-67
2023/02/07 10:31:22;;;;;;;7.88;7.03;;;0.40;99.90;;;;;;4914599;29;20213;-68
2023/02/07 10:33:53;;;;;;;7.22;4.47;;;0.40;99.90;;;;;;4922126;29;20212;-69
2023/02/07 10:36:21;;;;;;;3.35;3.25;;;0.40;99.90;;;;;;4916214;29;20662;-68
2023/02/07 10:38:55;;;;;;;1.23;1.23;;;0.50;99.90;;;;;;4915391;29;20230;-67
2023/02/07 10:41:29;;;;;;;8.45;7.90;;;0.50;99.90;;;;;;4914226;29;20220;-70
2023/02/07 10:43:56;;;;;;;8.10;5.65;;;0.60;99.90;;;;;;4914568;29;20727;-69
2023/02/07 10:46:23;;;;;;;7.38;3.35;;;0.60;99.90;;;;;;4916140;29;20216;-67
2023/02/07 10:48:51;;;;;;;11.50;5.80;;;0.70;99.90;;;;;;4911377;29;20276;-69
2023/02/07 10:51:24;;;;;;;7.78;5.85;;;0.80;99.90;;;;;;4911705;29;20210;-70
2023/02/07 10:54:03;;;;;;;4.00;3.58;;;0.80;99.90;;;;;;4913252;29;20297;-68
2023/02/07 10:56:33;;;;;;;3.85;3.50;;;0.90;99.90;;;;;;4916019;29;20206;-70
2023/02/07 10:59:00;;;;;;;5.85;4.93;;;1.00;99.90;;;;;;4914881;29;20273;-69
2023/02/07 11:01:28;;;;;;;6.90;5.78;;;1.00;99.90;;;;;;4911667;29;20218;-68
2023/02/07 11:03:56;;;;;;;7.43;5.73;;;1.10;99.90;;;;;;4910086;29;20236;-69
2023/02/07 11:06:28;;;;;;;12.80;6.25;;;1.10;99.90;;;;;;4915153;29;20207;-68
2023/02/07 11:09:21;;;;;;;3.30;1.38;;;1.20;99.90;;;;;;4915703;29;20244;-67
2023/02/07 11:11:49;;;;;;;8.68;6.45;;;1.30;99.90;;;;;;4914662;29;20409;-68
2023/02/07 11:14:19;;;;;;;4.50;4.20;;;1.40;99.90;;;;;;4915803;29;20218;-68
2023/02/07 11:16:50;;;;;;;16.23;6.88;;;1.40;99.90;;;;;;4916368;29;20214;-68
2023/02/07 11:19:20;;;;;;;5.47;2.80;;;1.50;99.90;;;;;;4939053;23;20233;-67
2023/02/07 11:21:49;;;;;;;10.07;5.43;;;1.50;99.90;;;;;;4921015;29;20205;-67
2023/02/07 11:24:20;;;;;;;4.22;3.83;;;1.60;99.90;;;;;;4935223;29;20234;-67
2023/02/07 11:26:56;;;;;;;2.75;1.20;;;1.60;99.90;;;;;;4932237;29;20248;-68
2023/02/07 11:29:25;;;;;;;2.90;2.15;;;1.70;99.90;;;;;;4915929;29;20598;-67
2023/02/07 11:31:54;;;;;;;0.90;0.90;;;1.70;99.90;;;;;;4915797;29;20213;-67
2023/02/07 11:34:30;;;;;;;6.97;6.00;;;1.70;99.90;;;;;;4920302;29;20212;-67
2023/02/07 11:37:11;;;;;;;2.08;1.80;;;1.80;99.90;;;;;;4922604;29;20220;-68
2023/02/07 11:39:43;;;;;;;2.67;2.67;;;1.90;99.90;;;;;;4934673;29;20238;-68
2023/02/07 11:42:14;;;;;;;9.52;3.50;;;1.90;99.90;;;;;;4935053;29;20218;-68
2023/02/07 11:44:43;;;;;;;8.30;4.70;;;2.00;99.90;;;;;;4922429;29;20313;-68
2023/02/07 11:47:16;;;;;;;8.32;4.57;;;2.10;99.90;;;;;;4928742;29;20528;-68
2023/02/07 11:49:46;;;;;;;4.63;4.32;;;2.10;99.90;;;;;;4927714;29;20237;-67
2023/02/07 11:52:14;;;;;;;8.13;4.53;;;2.10;99.90;;;;;;4934424;29;20237;-67
2023/02/07 11:54:46;;;;;;;3.20;2.85;;;2.20;99.90;;;;;;4931204;29;20393;-68
2023/02/07 11:57:16;;;;;;;10.70;8.00;;;2.20;99.90;;;;;;4920096;29;20202;-68
2023/02/07 11:59:49;;;;;;;6.40;3.92;;;2.30;99.90;;;;;;4926261;29;20258;-67
2023/02/07 12:02:19;;;;;;;9.20;4.28;;;2.30;99.90;;;;;;4933054;29;20221;-67
2023/02/07 12:04:46;;;;;;;4.45;3.65;;;2.30;99.90;;;;;;4927888;29;20234;-68
2023/02/07 12:07:17;;;;;;;3.47;3.38;;;2.40;99.90;;;;;;4926181;29;20226;-68
2023/02/07 12:09:47;;;;;;;5.90;5.10;;;2.40;99.90;;;;;;4917946;29;20245;-68
2023/02/07 12:12:19;;;;;;;1.42;1.33;;;2.50;99.90;;;;;;4918836;29;20210;-70
2023/02/07 12:14:51;;;;;;;9.40;4.20;;;2.50;99.90;;;;;;4921707;29;20217;-68
2023/02/07 12:17:25;;;;;;;6.90;3.67;;;2.60;99.90;;;;;;4924446;29;20240;-68
2023/02/07 12:19:57;;;;;;;8.80;3.15;;;2.60;99.90;;;;;;4918563;29;20240;-68
2023/02/07 12:22:30;;;;;;;3.17;1.80;;;2.70;99.90;;;;;;4917795;29;20217;-68
2023/02/07 12:25:02;;;;;;;1.48;1.48;;;2.70;99.90;;;;;;4917153;29;20592;-68
2023/02/07 12:27:35;;;;;;;2.30;2.03;;;2.80;99.90;;;;;;4920319;29;20292;-67
2023/02/07 12:30:04;;;;;;;6.32;2.90;;;2.80;99.90;;;;;;4933703;29;20261;-67
2023/02/07 12:32:40;;;;;;;9.52;4.03;;;2.90;99.90;;;;;;4933361;29;20557;-67
2023/02/07 12:35:17;;;;;;;3.13;2.92;;;2.90;99.90;;;;;;4925966;29;20213;-67
2023/02/07 12:37:50;;;;;;;4.88;3.55;;;2.90;99.90;;;;;;4916440;29;20222;-66
2023/02/07 12:40:28;;;;;;;1.95;1.85;;;3.00;99.90;;;;;;4923625;29;20247;-67
2023/02/07 12:43:01;;;;;;;3.55;3.08;;;3.00;99.90;;;;;;4934466;29;20218;-67
2023/02/07 12:45:40;;;;;;;2.67;2.15;;;3.10;99.90;;;;;;4923895;29;20328;-67
2023/02/07 12:48:16;;;;;;;10.15;5.68;;;3.10;99.90;;;;;;4920470;29;20640;-67
2023/02/07 12:51:00;;;;;;;3.22;2.83;;;3.10;99.90;;;;;;4897041;29;20738;-67
2023/02/07 12:53:38;;;;;;;2.90;2.70;;;3.10;99.90;;;;;;4921217;29;20221;-67
2023/02/07 12:56:19;;;;;;;7.07;3.65;;;3.20;99.90;;;;;;4920157;29;20205;-67
2023/02/07 12:58:59;;;;;;;8.50;6.00;;;3.30;99.90;;;;;;4910280;29;20286;-67
2023/02/07 13:01:35;;;;;;;9.50;4.95;;;3.30;99.90;;;;;;4915305;29;20241;-67
2023/02/07 13:04:21;;;;;;;4.90;4.38;;;3.40;99.90;;;;;;4915610;29;20229;-66
2023/02/07 13:06:59;;;;;;;9.13;4.47;;;3.40;99.90;;;;;;4910946;29;20260;-67
2023/02/07 13:09:35;;;;;;;2.30;2.20;;;3.40;99.90;;;;;;4915060;29;20238;-66
2023/02/07 13:12:09;;;;;;;7.00;3.83;;;3.40;99.90;;;;;;4917170;29;20233;-67
2023/02/07 13:14:46;;;;;;;1.67;1.58;;;3.40;99.90;;;;;;4913571;29;20586;-65
2023/02/07 13:17:36;;;;;;;2.70;1.38;;;3.50;99.90;;;;;;4922244;29;20202;-66
2023/02/07 13:20:09;;;;;;;4.57;4.10;;;3.50;99.90;;;;;;4927279;29;20706;-67
2023/02/07 13:22:43;;;;;;;4.45;4.10;;;3.50;99.90;;;;;;4918417;29;20209;-67
2023/02/07 13:25:18;;;;;;;5.28;4.05;;;3.60;99.90;;;;;;4919239;29;20227;-67
2023/02/07 13:27:46;;;;;;;5.18;2.85;;;3.60;99.90;;;;;;4915900;29;20211;-67
2023/02/07 13:30:16;;;;;;;3.00;2.88;;;3.50;99.90;;;;;;4914466;29;20316;-67
2023/02/07 13:32:43;;;;;;;4.30;2.53;;;3.60;99.90;;;;;;4913401;29;20233;-67
2023/02/07 13:35:15;;;;;;;4.65;3.35;;;3.60;99.90;;;;;;4921509;29;20210;-67
2023/02/07 13:37:49;;;;;;;1.55;1.55;;;3.60;99.90;;;;;;4922239;29;20207;-67
2023/02/07 13:40:27;;;;;;;3.13;2.25;;;3.60;99.90;;;;;;4914050;29;20601;-68
2023/02/07 13:43:04;;;;;;;2.35;2.25;;;3.60;99.90;;;;;;4915048;29;20842;-66
2023/02/07 13:45:41;;;;;;;5.65;3.38;;;3.60;99.90;;;;;;4924642;29;20616;-66
2023/02/07 13:48:15;;;;;;;3.00;2.90;;;3.60;99.90;;;;;;4910847;29;20665;-67
2023/02/07 13:50:50;;;;;;;5.13;4.72;;;3.60;99.90;;;;;;4895372;29;20243;-67
2023/02/07 13:53:35;;;;;;;3.90;3.70;;;3.60;99.90;;;;;;4900881;29;20206;-68
2023/02/07 13:56:08;;;;;;;1.88;1.77;;;3.60;99.90;;;;;;4919523;29;20587;-67
2023/02/07 14:01:51;;;;;;;4.47;2.00;;;3.70;99.90;;;;;;4907172;29;20274;-67
2023/02/07 14:04:19;;;;;;;3.20;2.85;;;3.70;99.90;;;;;;4920925;29;20237;-67
2023/02/07 14:06:56;;;;;;;4.03;2.58;;;3.60;99.90;;;;;;4910023;29;20272;-68
2023/02/07 14:09:28;;;;;;;2.72;2.22;;;3.70;99.90;;;;;;4916093;29;20231;-68
2023/02/07 14:11:58;;;;;;;2.67;2.10;;;3.70;99.90;;;;;;4923938;29;20510;-68
2023/02/07 14:14:27;;;;;;;2.47;2.25;;;3.70;99.90;;;;;;4922015;29;20214;-67
2023/02/07 14:16:57;;;;;;;2.50;2.30;;;3.70;99.90;;;;;;4919032;29;20659;-68
2023/02/07 14:19:50;;;;;;;2.70;2.25;;;3.70;99.90;;;;;;4913092;29;20242;-68
2023/02/07 14:22:22;;;;;;;2.78;2.60;;;3.70;99.90;;;;;;4916796;29;20207;-67
2023/02/07 14:25:10;;;;;;;4.10;3.60;;;3.80;99.90;;;;;;4911482;29;20207;-68
2023/02/07 14:27:39;;;;;;;2.28;2.03;;;3.70;99.90;;;;;;4920072;29;20705;-68
2023/02/07 14:30:20;;;;;;;2.25;2.15;;;3.70;99.90;;;;;;4921208;29;20250;-67
2023/02/07 14:33:13;;;;;;;5.43;4.88;;;3.70;99.90;;;;;;4913882;29;20294;-67
2023/02/07 14:36:01;;;;;;;5.53;5.00;;;3.70;99.90;;;;;;4915649;29;20210;-67
2023/02/07 14:38:33;;;;;;;2.85;2.65;;;3.70;99.90;;;;;;4923802;29;20218;-67
2023/02/07 14:41:04;;;;;;;5.78;5.38;;;3.70;99.90;;;;;;4914648;29;20341;-68
2023/02/07 14:43:40;;;;;;;3.65;3.42;;;3.70;99.90;;;;;;4923757;29;20214;-66
2023/02/07 14:46:10;;;;;;;13.70;4.65;;;3.70;99.90;;;;;;4919674;29;20268;-67
2023/02/07 14:48:46;;;;;;;5.85;5.45;;;3.60;99.90;;;;;;4913725;29;20211;-66
2023/02/07 14:51:17;;;;;;;5.25;4.75;;;3.60;99.90;;;;;;4918338;29;20298;-68
2023/02/07 14:53:46;;;;;;;6.25;3.83;;;3.60;99.90;;;;;;4917745;29;20210;-68
2023/02/07 14:56:26;;;;;;;4.70;4.20;;;3.60;99.90;;;;;;4916337;29;20619;-67
2023/02/07 14:58:56;;;;;;;10.05;5.30;;;3.50;99.90;;;;;;4904480;29;20644;-67
2023/02/07 15:01:25;;;;;;;3.30;3.10;;;3.50;99.90;;;;;;4914987;29;20342;-67
2023/02/07 15:04:02;;;;;;;3.85;3.63;;;3.50;99.90;;;;;;4913748;29;20216;-67
2023/02/07 15:06:30;;;;;;;6.10;5.05;;;3.50;99.90;;;;;;4915979;29;20249;-67
2023/02/07 15:08:58;;;;;;;4.60;4.30;;;3.50;99.90;;;;;;4913482;29;20278;-67
2023/02/07 15:11:26;;;;;;;3.70;3.50;;;3.40;99.90;;;;;;4921957;29;20580;-68
2023/02/07 15:13:56;;;;;;;4.30;3.90;;;3.40;99.90;;;;;;4915703;29;20215;-67
2023/02/07 15:16:24;;;;;;;5.97;5.43;;;3.40;99.90;;;;;;4915657;29;20214;-67
2023/02/07 15:18:54;;;;;;;13.50;7.22;;;3.30;99.90;;;;;;4916027;29;20262;-67
2023/02/07 15:21:33;;;;;;;11.23;5.75;;;3.30;99.90;;;;;;4930043;29;20198;-67
2023/02/07 15:24:04;;;;;;;8.48;6.82;;;3.30;99.90;;;;;;4925488;29;20214;-68
2023/02/07 15:26:31;;;;;;;7.75;5.22;;;3.20;99.90;;;;;;4915690;29;20683;-68
2023/02/07 15:29:00;;;;;;;7.63;4.50;;;3.20;99.90;;;;;;4922841;29;20229;-67
2023/02/07 15:31:27;;;;;;;2.78;2.60;;;3.10;99.90;;;;;;4923043;29;20214;-67
2023/02/07 15:33:56;;;;;;;6.90;4.55;;;3.10;99.90;;;;;;4913876;29;20241;-67
2023/02/07 15:36:34;;;;;;;4.18;3.20;;;3.10;99.90;;;;;;4923171;29;20206;-67
2023/02/07 15:39:04;;;;;;;4.90;3.88;;;3.00;99.90;;;;;;4915118;29;20665;-68
2023/02/07 15:41:31;;;;;;;2.80;2.60;;;3.00;99.90;;;;;;4929027;29;20202;-67
2023/02/07 15:43:59;;;;;;;3.92;3.30;;;2.90;99.90;;;;;;4929019;29;20214;-67
2023/02/07 15:46:42;;;;;;;5.40;4.45;;;2.90;99.90;;;;;;4912216;29;20219;-67
2023/02/07 15:49:09;;;;;;;7.43;3.08;;;2.80;99.90;;;;;;4921927;29;20316;-67
2023/02/07 15:51:41;;;;;;;4.78;4.40;;;2.80;99.90;;;;;;4919177;29;20587;-67
2023/02/07 15:54:15;;;;;;;6.78;3.20;;;2.80;99.90;;;;;;4913625;29;20202;-67
2023/02/07 15:56:45;;;;;;;6.30;2.67;;;2.70;99.90;;;;;;4917066;29;20217;-68
2023/02/07 15:59:18;;;;;;;14.93;9.70;;;2.60;99.90;;;;;;4914495;29;20263;-67
2023/02/07 16:01:52;;;;;;;9.18;4.35;;;2.50;99.90;;;;;;4928028;29;20218;-68
2023/02/07 16:04:19;;;;;;;6.10;5.38;;;2.50;99.90;;;;;;4922857;29;20294;-67
2023/02/07 16:06:58;;;;;;;4.53;4.15;;;2.40;99.90;;;;;;4914004;29;20235;-68
2023/02/07 16:09:36;;;;;;;5.72;3.95;;;2.30;99.90;;;;;;4912750;29;20234;-68
2023/02/07 16:12:22;;;;;;;2.65;2.42;;;2.20;99.90;;;;;;4922697;29;20201;-67
2023/02/07 16:14:48;;;;;;;2.45;2.13;;;2.20;99.90;;;;;;4924354;29;20221;-68
2023/02/07 16:17:23;;;;;;;4.85;3.55;;;2.10;99.90;;;;;;4932166;29;20208;-68
2023/02/07 16:19:49;;;;;;;1.77;1.67;;;2.10;99.90;;;;;;4908242;29;20304;-67
2023/02/07 16:22:20;;;;;;;6.43;4.03;;;2.00;99.90;;;;;;4921837;29;20659;-69
2023/02/07 16:24:48;;;;;;;5.10;4.78;;;1.90;99.90;;;;;;4914161;29;20238;-66
2023/02/07 16:27:18;;;;;;;4.00;3.58;;;1.90;99.90;;;;;;4924025;29;20350;-67
2023/02/07 16:29:45;;;;;;;5.88;5.45;;;1.80;99.90;;;;;;4925698;29;20237;-69
2023/02/07 16:32:13;;;;;;;8.15;4.78;;;1.70;99.90;;;;;;4922467;29;20203;-69
2023/02/07 16:34:40;;;;;;;3.67;3.53;;;1.70;99.90;;;;;;4920795;29;20222;-68
2023/02/07 16:37:07;;;;;;;10.32;5.95;;;1.60;99.90;;;;;;4915183;29;20217;-69
2023/02/07 16:39:36;;;;;;;7.93;3.20;;;1.60;99.90;;;;;;4914528;29;20305;-68
2023/02/07 16:42:08;;;;;;;8.00;3.92;;;1.50;99.90;;;;;;4914282;29;20574;-68
2023/02/07 16:44:36;;;;;;;4.05;3.85;;;1.40;99.90;;;;;;4913157;29;20683;-68
2023/02/07 16:47:03;;;;;;;4.55;4.28;;;1.30;99.90;;;;;;4920959;29;20332;-68
2023/02/07 16:49:31;;;;;;;2.33;2.30;;;1.30;99.90;;;;;;4919062;29;20234;-67
2023/02/07 16:51:58;;;;;;;2.05;1.95;;;1.20;99.90;;;;;;4924296;29;20225;-67
2023/02/07 16:54:25;;;;;;;3.78;3.58;;;1.20;99.90;;;;;;4912965;29;20224;-69
2023/02/07 16:56:55;;;;;;;4.82;3.90;;;1.10;99.90;;;;;;4923285;29;20213;-67
2023/02/07 16:59:23;;;;;;;6.50;3.55;;;1.10;99.90;;;;;;4918022;29;20239;-68
2023/02/07 17:01:52;;;;;;;8.63;3.33;;;1.10;99.90;;;;;;4931392;29;20210;-68
2023/02/07 17:04:19;;;;;;;4.60;3.45;;;1.00;99.90;;;;;;4931472;29;20307;-67
2023/02/07 17:06:47;;;;;;;4.43;4.22;;;1.00;99.90;;;;;;4920547;29;20233;-67
2023/02/07 17:09:15;;;;;;;3.90;3.70;;;1.00;99.90;;;;;;4916191;29;20229;-69
2023/02/07 17:11:42;;;;;;;9.95;3.67;;;1.00;99.90;;;;;;4921661;29;20301;-68
2023/02/07 17:14:10;;;;;;;5.60;3.40;;;1.00;99.90;;;;;;4924806;29;20243;-70
2023/02/07 17:16:37;;;;;;;4.15;3.25;;;1.10;99.90;;;;;;4921435;29;20277;-66
2023/02/07 17:19:10;;;;;;;3.05;2.85;;;1.10;99.90;;;;;;4923100;29;20221;-67
2023/02/07 17:21:36;;;;;;;4.07;3.85;;;1.10;99.90;;;;;;4918376;29;20223;-67
2023/02/07 17:24:04;;;;;;;4.32;4.00;;;1.10;99.90;;;;;;4918879;29;20236;-69
2023/02/07 17:26:31;;;;;;;4.60;3.25;;;1.10;99.90;;;;;;4918645;29;20239;-67
2023/02/07 17:28:58;;;;;;;4.43;4.18;;;1.00;99.90;;;;;;4920369;29;20207;-67
2023/02/07 17:31:26;;;;;;;5.55;4.68;;;1.00;99.90;;;;;;4914191;29;20216;-66
2023/02/07 17:33:55;;;;;;;16.40;4.07;;;1.00;99.90;;;;;;4922604;29;20649;-68
2023/02/07 17:36:22;;;;;;;2.80;2.58;;;0.90;99.90;;;;;;4923494;29;20209;-68
2023/02/07 17:38:49;;;;;;;6.70;3.38;;;0.90;99.90;;;;;;4937385;29;20754;-68
2023/02/07 17:41:16;;;;;;;4.10;3.83;;;0.90;99.90;;;;;;4921088;29;20213;-69
2023/02/07 17:43:43;;;;;;;4.10;3.67;;;0.80;99.90;;;;;;4927965;29;20225;-68
2023/02/07 17:46:16;;;;;;;12.30;5.13;;;0.80;99.90;;;;;;4928327;29;20625;-68
2023/02/07 17:48:46;;;;;;;4.13;3.85;;;0.70;99.90;;;;;;4927324;29;20210;-68
2023/02/07 17:51:13;;;;;;;3.58;3.08;;;0.70;99.90;;;;;;4919227;29;20304;-68
2023/02/07 17:53:39;;;;;;;5.82;4.20;;;0.70;99.90;;;;;;4919862;29;20218;-68
2023/02/07 17:56:06;;;;;;;4.45;4.03;;;0.70;99.90;;;;;;4926954;29;20213;-69
2023/02/07 17:58:36;;;;;;;11.27;8.43;;;0.60;99.90;;;;;;4922414;29;20549;-69
2023/02/07 18:01:04;;;;;;;5.32;2.33;;;0.60;99.90;;;;;;4916312;29;20257;-69
2023/02/07 18:03:30;;;;;;;2.88;2.63;;;0.60;99.90;;;;;;4934050;29;20219;-67
2023/02/07 18:05:58;;;;;;;3.00;2.88;;;0.50;99.90;;;;;;4929140;29;20693;-69
2023/02/07 18:08:25;;;;;;;4.53;4.22;;;0.60;99.90;;;;;;4929733;29;20236;-69
2023/02/07 18:10:52;;;;;;;5.55;4.53;;;0.50;99.90;;;;;;4929186;29;20244;-68
2023/02/07 18:13:19;;;;;;;3.90;2.67;;;0.50;99.90;;;;;;4928044;29;20214;-67